createdAt,value
2023-01-11T00:00:19.979Z,70.10
2023-01-11T00:02:46.387Z,68.68
2023-01-11T00:05:12.807Z,71.43
2023-01-11T00:07:39.609Z,72.68
2023-01-11T00:10:09.496Z,72.85
2023-01-11T00:12:35.873Z,65.20
2023-01-11T00:15:02.351Z,71.53
2023-01-11T00:17:29.348Z,63.60
2023-01-11T00:19:55.665Z,65.32
2023-01-11T00:22:22.030Z,62.92
2023-01-11T00:24:48.429Z,64.65
2023-01-11T00:27:14.804Z,70.80
2023-01-11T00:29:41.222Z,62.30
2023-01-11T00:32:07.989Z,58.92
2023-01-11T00:34:34.464Z,67.13
2023-01-11T00:37:00.809Z,65.00
2023-01-11T00:39:27.236Z,58.58
2023-01-11T00:41:53.644Z,60.85
2023-01-11T00:44:19.979Z,61.22
2023-01-11T00:46:46.597Z,56.08
2023-01-11T00:49:12.989Z,57.88
2023-01-11T00:51:39.473Z,67.60
2023-01-11T00:54:05.911Z,58.13
2023-01-11T00:56:32.288Z,65.82
2023-01-11T00:58:58.723Z,57.45
2023-01-11T01:01:25.178Z,66.32
2023-01-11T01:03:51.584Z,56.08
2023-01-11T01:06:17.991Z,63.08
2023-01-11T01:08:44.512Z,56.30
2023-01-11T01:11:10.947Z,58.33
2023-01-11T01:13:37.293Z,52.13
2023-01-11T01:16:03.953Z,49.83
2023-01-11T01:18:30.373Z,46.25
2023-01-11T01:20:56.694Z,47.15
2023-01-11T01:23:23.157Z,44.35
2023-01-11T01:25:49.597Z,45.80
2023-01-11T01:28:16.448Z,47.30
2023-01-11T01:30:42.810Z,44.33
2023-01-11T01:33:09.176Z,43.60
2023-01-11T01:35:38.090Z,47.42
2023-01-11T01:38:04.462Z,37.15
2023-01-11T01:40:30.846Z,45.00
2023-01-11T01:42:57.171Z,41.67
2023-01-11T01:45:27.807Z,43.72
2023-01-11T01:48:04.591Z,39.40
2023-01-11T01:50:33.536Z,43.30
2023-01-11T01:53:09.951Z,46.60
2023-01-11T01:55:40.723Z,43.03
2023-01-11T01:58:12.854Z,48.58
2023-01-11T02:00:42.755Z,40.65
2023-01-11T02:03:13.865Z,44.83
2023-01-11T02:05:40.306Z,42.05
2023-01-11T02:08:14.006Z,37.00
2023-01-11T02:10:55.498Z,36.60
2023-01-11T02:13:22.277Z,31.92
2023-01-11T02:15:49.524Z,36.40
2023-01-11T02:18:15.948Z,35.78
2023-01-11T02:20:42.273Z,35.60
2023-01-11T02:23:44.385Z,35.30
2023-01-11T02:26:16.545Z,32.45
2023-01-11T02:29:11.032Z,36.58
2023-01-11T02:31:57.521Z,31.20
2023-01-11T02:34:41.814Z,30.98
2023-01-11T02:37:17.416Z,31.40
2023-01-11T02:40:14.825Z,28.48
2023-01-11T02:42:53.640Z,27.17
2023-01-11T02:45:50.024Z,27.17
2023-01-11T02:48:26.298Z,25.30
2023-01-11T02:51:07.791Z,26.38
2023-01-11T02:53:48.079Z,35.97
2023-01-11T02:56:20.259Z,30.15
2023-01-11T02:58:50.121Z,37.92
2023-01-11T03:01:17.019Z,36.63
2023-01-11T03:03:43.386Z,38.67
2023-01-11T03:06:20.966Z,41.53
2023-01-11T03:09:08.802Z,43.08
2023-01-11T03:11:35.093Z,39.45
2023-01-11T03:14:19.951Z,39.35
2023-01-11T03:17:15.003Z,47.05
2023-01-11T03:19:54.509Z,43.47
2023-01-11T03:22:50.805Z,45.78
2023-01-11T03:25:40.771Z,46.78
2023-01-11T03:28:17.683Z,43.40
2023-01-11T03:31:01.856Z,38.60
2023-01-11T03:34:01.824Z,47.05
2023-01-11T03:36:37.183Z,45.65
2023-01-11T03:39:17.733Z,41.53
2023-01-11T03:41:45.845Z,39.75
2023-01-11T03:44:16.769Z,38.67
2023-01-11T03:46:50.415Z,37.92
2023-01-11T03:49:22.624Z,30.73
2023-01-11T03:51:50.799Z,25.42
2023-01-11T03:54:22.569Z,29.83
2023-01-11T03:57:12.716Z,37.72
2023-01-11T03:59:40.195Z,25.35
2023-01-11T04:02:22.221Z,28.92
2023-01-11T04:04:48.688Z,25.52
2023-01-11T04:07:15.593Z,34.95
2023-01-11T04:09:42.285Z,31.67
2023-01-11T04:12:09.607Z,26.33
2023-01-11T04:14:38.644Z,34.22
2023-01-11T04:17:05.123Z,35.08
2023-01-11T04:19:31.802Z,41.40
2023-01-11T04:21:58.242Z,30.13
2023-01-11T04:24:24.615Z,38.55
2023-01-11T04:26:51.009Z,32.92
2023-01-11T04:29:17.424Z,42.88
2023-01-11T04:31:43.914Z,35.80
2023-01-11T04:34:11.845Z,35.75
2023-01-11T04:36:38.289Z,42.65
2023-01-11T04:39:04.698Z,40.67
2023-01-11T04:41:31.067Z,39.30
2023-01-11T04:43:57.962Z,43.47
2023-01-11T04:46:25.168Z,35.67
2023-01-11T04:48:52.179Z,42.83
2023-01-11T04:51:18.877Z,47.17
2023-01-11T04:53:47.587Z,36.67
2023-01-11T04:56:13.974Z,55.85
2023-01-11T04:58:40.362Z,47.92
2023-01-11T05:01:17.361Z,35.92
2023-01-11T05:03:44.393Z,29.50
2023-01-11T05:06:12.844Z,44.38
2023-01-11T05:08:39.430Z,30.75
2023-01-11T05:11:07.913Z,46.13
2023-01-11T05:13:34.487Z,53.83
2023-01-11T05:16:00.902Z,43.00
2023-01-11T05:18:27.233Z,50.67
2023-01-11T05:20:53.533Z,49.05
2023-01-11T05:23:19.925Z,36.38
2023-01-11T05:25:46.766Z,40.63
2023-01-11T05:28:13.136Z,38.35
2023-01-11T05:30:39.456Z,39.13
2023-01-11T05:33:05.823Z,55.47
2023-01-11T05:35:32.213Z,39.72
2023-01-11T05:37:58.581Z,43.47
2023-01-11T05:40:24.990Z,31.63
2023-01-11T05:42:51.371Z,41.35
2023-01-11T05:45:17.746Z,45.00
2023-01-11T05:47:44.109Z,37.00
2023-01-11T05:50:10.716Z,47.10
2023-01-11T05:52:37.103Z,37.40
2023-01-11T05:55:03.840Z,38.10
2023-01-11T05:57:30.226Z,35.42
2023-01-11T05:59:56.521Z,41.72
2023-01-11T06:02:22.935Z,37.70
2023-01-11T06:04:49.249Z,39.03
2023-01-11T06:07:15.647Z,36.05
2023-01-11T06:09:42.059Z,35.58
2023-01-11T06:12:08.504Z,31.52
2023-01-11T06:14:37.840Z,39.63
2023-01-11T06:17:04.469Z,33.20
2023-01-11T06:19:30.766Z,32.67
2023-01-11T06:21:57.109Z,32.78
2023-01-11T06:24:23.492Z,32.25
2023-01-11T06:26:54.865Z,34.85
2023-01-11T06:29:21.266Z,31.35
2023-01-11T06:31:47.637Z,28.35
2023-01-11T06:34:13.956Z,30.80
2023-01-11T06:36:40.338Z,33.30
2023-01-11T06:39:06.697Z,41.45
2023-01-11T06:41:33.060Z,35.63
2023-01-11T06:43:59.866Z,48.25
2023-01-11T06:46:28.911Z,28.20
2023-01-11T06:48:55.550Z,49.67
2023-01-11T06:51:21.834Z,23.63
2023-01-11T06:53:48.424Z,36.33
2023-01-11T06:56:17.268Z,33.97
2023-01-11T06:58:46.743Z,32.30
2023-01-11T07:01:13.519Z,28.25
2023-01-11T07:03:39.902Z,29.70
2023-01-11T07:06:06.386Z,38.88
2023-01-11T07:08:33.740Z,40.08
2023-01-11T07:11:00.056Z,29.27
2023-01-11T07:13:26.501Z,30.08
2023-01-11T07:15:57.401Z,36.45
2023-01-11T07:18:23.761Z,29.45
2023-01-11T07:20:51.122Z,33.72
2023-01-11T07:23:17.455Z,25.52
2023-01-11T07:25:43.806Z,21.88
2023-01-11T07:28:10.183Z,21.20
2023-01-11T07:30:55.618Z,23.50
2023-01-11T07:33:23.994Z,25.88
2023-01-11T07:35:50.414Z,26.33
2023-01-11T07:38:16.905Z,27.40
2023-01-11T07:40:43.289Z,26.90
2023-01-11T07:43:12.367Z,31.33
2023-01-11T07:45:45.703Z,29.55
2023-01-11T07:48:13.709Z,30.85
2023-01-11T07:50:42.825Z,30.13
2023-01-11T07:53:10.820Z,31.33
2023-01-11T07:55:37.305Z,33.72
2023-01-11T07:58:05.013Z,26.30
2023-01-11T08:00:31.641Z,32.97
2023-01-11T08:02:58.066Z,29.85
2023-01-11T08:05:24.898Z,27.10
2023-01-11T08:07:51.311Z,23.23
2023-01-11T08:10:17.763Z,34.03
2023-01-11T08:12:51.447Z,22.15
2023-01-11T08:15:17.996Z,31.58
2023-01-11T08:17:44.437Z,45.30
2023-01-11T08:20:11.033Z,39.30
2023-01-11T08:22:37.424Z,23.77
2023-01-11T08:25:04.083Z,27.92
2023-01-11T08:27:30.614Z,31.67
2023-01-11T08:29:56.943Z,31.13
2023-01-11T08:32:23.348Z,30.80
2023-01-11T08:34:49.679Z,28.25
2023-01-11T08:37:16.055Z,35.88
2023-01-11T08:39:42.445Z,32.55
2023-01-11T08:42:08.768Z,25.13
2023-01-11T08:44:35.292Z,25.50
2023-01-11T08:47:03.164Z,36.15
2023-01-11T08:49:29.655Z,36.10
2023-01-11T08:51:56.284Z,38.35
2023-01-11T08:54:22.697Z,28.77
2023-01-11T08:56:49.143Z,33.22
2023-01-11T08:59:15.480Z,32.10
2023-01-11T09:01:41.918Z,32.88
2023-01-11T09:04:23.092Z,26.02
2023-01-11T09:06:49.931Z,50.85
2023-01-11T09:09:16.447Z,39.85
2023-01-11T09:11:42.803Z,24.98
2023-01-11T09:14:09.152Z,29.25
2023-01-11T09:16:35.487Z,39.50
2023-01-11T09:19:02.280Z,45.78
2023-01-11T09:21:28.761Z,30.17
2023-01-11T09:23:57.789Z,36.83
2023-01-11T09:26:25.256Z,37.20
2023-01-11T09:28:52.180Z,45.75
2023-01-11T09:31:18.571Z,35.53
2023-01-11T09:33:44.941Z,33.17
2023-01-11T09:36:11.532Z,41.35
2023-01-11T09:38:37.861Z,31.52
2023-01-11T09:41:10.074Z,29.50
2023-01-11T09:43:45.487Z,33.33
2023-01-11T09:46:13.981Z,37.22
2023-01-11T09:48:54.029Z,42.08
2023-01-11T09:51:24.731Z,29.80
2023-01-11T09:53:51.132Z,32.05
2023-01-11T09:56:23.049Z,39.20
2023-01-11T09:59:18.274Z,31.20
2023-01-11T10:01:50.058Z,36.83
2023-01-11T10:04:47.511Z,35.63
2023-01-11T10:07:39.746Z,36.42
2023-01-11T10:18:29.801Z,31.23
2023-01-11T10:19:43.572Z,28.27
2023-01-11T10:22:24.379Z,39.85
2023-01-11T10:25:05.840Z,38.60
2023-01-11T10:27:39.092Z,37.83
2023-01-11T10:30:46.840Z,46.70
2023-01-11T10:33:17.808Z,42.22
2023-01-11T10:35:57.277Z,37.58
2023-01-11T10:38:33.369Z,33.47
2023-01-11T10:41:21.977Z,27.33
2023-01-11T10:44:01.457Z,42.75
2023-01-11T10:46:30.843Z,44.10
2023-01-11T10:49:15.576Z,33.00
2023-01-11T10:51:46.144Z,34.97
2023-01-11T10:54:15.646Z,37.97
2023-01-11T10:57:05.197Z,35.50
2023-01-11T10:59:56.364Z,38.70
2023-01-11T11:02:38.355Z,33.17
2023-01-11T11:05:32.373Z,40.63
2023-01-11T11:08:14.816Z,39.38
2023-01-11T11:10:59.263Z,29.55
2023-01-11T11:13:43.897Z,30.10
2023-01-11T11:16:28.466Z,33.17
2023-01-11T11:18:58.509Z,24.48
2023-01-11T11:21:38.754Z,23.95
2023-01-11T11:24:17.847Z,42.50
2023-01-11T11:26:49.741Z,21.48
2023-01-11T11:29:23.953Z,33.85
2023-01-11T11:31:51.115Z,37.28
2023-01-11T11:34:22.213Z,26.15
2023-01-11T11:36:52.141Z,38.75
2023-01-11T11:39:31.470Z,30.30
2023-01-11T11:42:06.825Z,22.58
2023-01-11T11:44:33.561Z,36.28
2023-01-11T11:47:05.379Z,35.55
2023-01-11T11:49:36.178Z,31.77
2023-01-11T11:52:05.161Z,25.75
2023-01-11T11:54:37.693Z,24.73
2023-01-11T11:57:28.101Z,30.58
2023-01-11T12:00:05.731Z,32.92
2023-01-11T12:02:34.739Z,31.08
2023-01-11T12:05:07.275Z,21.33
2023-01-11T12:07:53.912Z,19.88
2023-01-11T12:10:24.081Z,26.42
2023-01-11T12:12:56.094Z,24.80
2023-01-11T12:15:33.518Z,25.67
2023-01-11T12:18:30.631Z,23.88
2023-01-11T12:20:57.020Z,29.17
2023-01-11T12:23:26.638Z,25.23
2023-01-11T12:26:07.862Z,19.58
2023-01-11T12:28:40.378Z,14.68
2023-01-11T12:31:22.950Z,14.75
2023-01-11T12:34:03.444Z,16.63
2023-01-11T12:37:11.709Z,13.07
2023-01-11T12:39:58.981Z,11.43
2023-01-11T12:42:48.473Z,17.02
2023-01-11T12:45:26.914Z,12.10
2023-01-11T12:48:18.237Z,15.35
2023-01-11T12:51:00.043Z,12.52
2023-01-11T12:53:39.972Z,13.90
2023-01-11T12:56:35.877Z,18.17
2023-01-11T12:59:23.633Z,14.32
2023-01-11T13:02:04.321Z,17.45
2023-01-11T13:04:30.676Z,18.15
2023-01-11T13:07:42.237Z,12.30
2023-01-11T13:10:26.228Z,15.05
2023-01-11T13:13:00.642Z,14.48
2023-01-11T13:15:46.338Z,20.38
2023-01-11T13:18:20.984Z,17.38
2023-01-11T13:21:01.616Z,18.25
2023-01-11T13:23:32.669Z,19.38
2023-01-11T13:26:11.232Z,16.80
2023-01-11T13:28:43.333Z,20.52
2023-01-11T13:31:13.512Z,14.20
2023-01-11T13:33:46.972Z,18.67
2023-01-11T13:36:23.347Z,15.60
2023-01-11T13:39:20.821Z,22.75
2023-01-11T13:41:57.856Z,22.08
2023-01-11T13:44:50.051Z,13.68
2023-01-11T13:47:23.945Z,23.48
2023-01-11T13:50:02.406Z,12.48
2023-01-11T13:52:54.767Z,26.60
2023-01-11T13:55:56.517Z,21.38
2023-01-11T13:58:30.156Z,19.50
2023-01-11T14:01:07.108Z,14.50
2023-01-11T14:03:51.709Z,14.63
2023-01-11T14:06:58.629Z,19.75
2023-01-11T14:09:33.671Z,14.73
2023-01-11T14:12:15.360Z,18.42
2023-01-11T14:15:19.478Z,16.90
2023-01-11T14:18:06.168Z,14.60
2023-01-11T14:20:55.435Z,14.35
2023-01-11T14:23:32.535Z,14.35
2023-01-11T14:26:12.621Z,18.25
2023-01-11T14:28:57.171Z,13.77
2023-01-11T14:31:48.533Z,19.88
2023-01-11T14:34:35.960Z,18.38
2023-01-11T14:37:02.376Z,13.75
2023-01-11T14:40:05.409Z,20.00
2023-01-11T14:42:57.893Z,16.23
2023-01-11T14:45:45.787Z,15.68
2023-01-11T14:48:26.603Z,22.95
2023-01-11T14:51:14.554Z,21.17
2023-01-11T14:53:52.661Z,14.60
2023-01-11T14:56:43.016Z,16.98
2023-01-11T14:59:38.810Z,14.93
2023-01-11T15:02:05.194Z,21.45
2023-01-11T15:04:58.125Z,16.67
2023-01-11T15:07:30.821Z,13.25
2023-01-11T15:09:59.658Z,14.88
2023-01-11T15:12:33.855Z,12.10
2023-01-11T15:15:07.431Z,20.55
2023-01-11T15:17:34.250Z,15.73
2023-01-11T15:20:10.370Z,19.02
2023-01-11T15:22:37.319Z,15.38
2023-01-11T15:25:20.234Z,15.68
2023-01-11T15:27:46.969Z,20.38
2023-01-11T15:30:39.705Z,14.75
2023-01-11T15:33:18.482Z,18.77
2023-01-11T15:35:56.909Z,15.82
2023-01-11T15:38:36.118Z,23.05
2023-01-11T15:41:06.534Z,18.40
2023-01-11T15:43:54.376Z,15.93
2023-01-11T15:46:29.838Z,16.02
2023-01-11T15:49:14.489Z,26.13
2023-01-11T15:52:02.934Z,18.85
2023-01-11T15:54:32.413Z,18.55
2023-01-11T15:57:40.431Z,19.38
2023-01-11T16:00:24.886Z,13.65
2023-01-11T16:03:30.262Z,21.88
2023-01-11T16:06:07.384Z,15.65
2023-01-11T16:08:45.743Z,14.60
2023-01-11T16:11:38.323Z,14.85
2023-01-11T16:14:17.627Z,13.55
2023-01-11T16:16:45.046Z,19.88
2023-01-11T16:19:19.363Z,16.13
2023-01-11T16:21:49.804Z,17.73
2023-01-11T16:24:19.888Z,23.70
2023-01-11T16:26:57.353Z,18.83
2023-01-11T16:29:26.792Z,20.55
2023-01-11T16:32:05.350Z,14.45
2023-01-11T16:34:43.604Z,30.15
2023-01-11T16:37:34.628Z,20.73
2023-01-11T16:40:23.203Z,16.80
2023-01-11T16:43:05.276Z,14.88
2023-01-11T16:45:43.530Z,18.50
2023-01-11T16:48:20.102Z,26.38
2023-01-11T16:51:03.430Z,21.15
2023-01-11T16:53:32.506Z,23.58
2023-01-11T16:56:01.910Z,20.20
2023-01-11T16:58:30.995Z,15.82
2023-01-11T17:01:03.423Z,17.10
2023-01-11T17:03:32.333Z,19.70
2023-01-11T17:06:15.295Z,20.60
2023-01-11T17:08:47.031Z,16.98
2023-01-11T17:11:23.851Z,16.20
2023-01-11T17:14:19.283Z,21.90
2023-01-11T17:16:49.506Z,28.27
2023-01-11T17:19:28.640Z,15.73
2023-01-11T17:22:08.588Z,18.30
2023-01-11T17:24:50.081Z,18.77
2023-01-11T17:27:28.142Z,28.23
2023-01-11T17:29:56.693Z,18.25
2023-01-11T17:32:32.592Z,18.50
2023-01-11T17:35:03.875Z,20.35
2023-01-11T17:37:31.083Z,21.17
2023-01-11T17:39:58.201Z,17.77
2023-01-11T17:42:25.102Z,19.70
2023-01-11T17:44:54.695Z,17.98
2023-01-11T17:47:21.996Z,16.90
2023-01-11T17:49:50.264Z,18.98
2023-01-11T17:52:23.284Z,21.90
2023-01-11T17:55:14.598Z,21.40
2023-01-11T17:57:41.171Z,16.45
2023-01-11T18:00:24.453Z,19.77
2023-01-11T18:02:52.205Z,21.27
2023-01-11T18:05:21.753Z,31.23
2023-01-11T18:07:56.136Z,28.90
2023-01-11T18:10:26.653Z,12.93
2023-01-11T18:12:56.537Z,14.07
2023-01-11T18:15:26.526Z,15.65
2023-01-11T18:17:53.050Z,12.30
2023-01-11T18:20:22.265Z,18.10
2023-01-11T18:23:04.539Z,14.82
2023-01-11T18:25:33.568Z,18.95
2023-01-11T18:28:12.250Z,18.65
2023-01-11T18:30:44.508Z,17.48
2023-01-11T18:33:22.638Z,17.45
2023-01-11T18:35:52.088Z,15.63
2023-01-11T18:38:24.092Z,19.85
2023-01-11T18:40:52.846Z,18.58
2023-01-11T18:43:25.537Z,20.63
2023-01-11T18:45:52.022Z,13.52
2023-01-11T18:48:18.386Z,19.00
2023-01-11T18:50:45.251Z,11.38
2023-01-11T18:53:13.156Z,22.48
2023-01-11T18:55:41.345Z,15.60
2023-01-11T18:58:07.805Z,10.70
2023-01-11T19:00:34.245Z,20.33
2023-01-11T19:03:01.035Z,12.70
2023-01-11T19:05:27.562Z,18.80
2023-01-11T19:07:54.008Z,21.63
2023-01-11T19:10:22.082Z,12.27
2023-01-11T19:12:49.202Z,18.83
2023-01-11T19:15:16.515Z,18.67
2023-01-11T19:17:43.039Z,11.52
2023-01-11T19:20:11.013Z,15.88
2023-01-11T19:22:38.138Z,15.32
2023-01-11T19:25:05.130Z,14.15
2023-01-11T19:27:31.570Z,20.60
2023-01-11T19:29:58.016Z,18.45
2023-01-11T19:32:25.566Z,21.08
2023-01-11T19:34:53.202Z,20.52
2023-01-11T19:37:19.765Z,17.58
2023-01-11T19:39:47.165Z,24.33
2023-01-11T19:42:13.618Z,10.25
2023-01-11T19:44:40.090Z,20.15
2023-01-11T19:47:11.468Z,17.23
2023-01-11T19:49:40.348Z,16.90
2023-01-11T19:52:07.298Z,9.32
2023-01-11T19:54:33.641Z,14.65
2023-01-11T19:57:00.025Z,9.93
2023-01-11T19:59:26.620Z,12.80
2023-01-11T20:01:52.955Z,16.73
2023-01-11T20:04:19.289Z,9.50
2023-01-11T20:06:52.772Z,10.57
2023-01-11T20:09:22.240Z,11.60
2023-01-11T20:11:49.293Z,9.40
2023-01-11T20:14:16.794Z,6.68
2023-01-11T20:16:43.634Z,15.02
2023-01-11T20:19:10.533Z,11.32
2023-01-11T20:21:37.008Z,9.13
2023-01-11T20:24:03.794Z,16.08
2023-01-11T20:26:31.027Z,19.67
2023-01-11T20:28:58.217Z,15.18
2023-01-11T20:31:26.986Z,17.63
2023-01-11T20:33:57.755Z,16.42
2023-01-11T20:36:24.716Z,15.98
2023-01-11T20:38:52.627Z,13.80
2023-01-11T20:41:21.506Z,13.13
2023-01-11T20:43:47.983Z,16.77
2023-01-11T20:46:14.449Z,14.65
2023-01-11T20:48:40.927Z,14.10
2023-01-11T20:51:07.330Z,13.57
2023-01-11T20:53:33.786Z,17.73
2023-01-11T20:56:04.590Z,20.48
2023-01-11T20:58:31.056Z,18.80
2023-01-11T21:01:04.236Z,22.80
2023-01-11T21:03:30.633Z,11.75
2023-01-11T21:05:57.261Z,18.63
2023-01-11T21:08:24.031Z,13.40
2023-01-11T21:10:50.478Z,15.43
2023-01-11T21:13:16.856Z,12.45
2023-01-11T21:15:43.302Z,13.82
2023-01-11T21:18:10.847Z,17.77
2023-01-11T21:20:37.385Z,10.82
2023-01-11T21:23:03.716Z,12.05
2023-01-11T21:25:33.713Z,15.60
2023-01-11T21:28:00.157Z,15.30
2023-01-11T21:30:26.565Z,15.75
2023-01-11T21:32:52.970Z,15.27
2023-01-11T21:35:19.289Z,15.07
2023-01-11T21:37:45.740Z,12.73
2023-01-11T21:40:12.545Z,15.07
2023-01-11T21:42:38.945Z,13.77
2023-01-11T21:45:05.805Z,14.60
2023-01-11T21:47:32.499Z,14.52
2023-01-11T21:49:58.915Z,15.23
2023-01-11T21:52:25.472Z,21.60
2023-01-11T21:54:51.982Z,20.20
2023-01-11T21:57:18.381Z,16.60
2023-01-11T21:59:44.687Z,13.85
2023-01-11T22:02:11.886Z,17.75
2023-01-11T22:04:38.323Z,17.50
2023-01-11T22:07:04.974Z,18.75
2023-01-11T22:09:31.468Z,18.52
2023-01-11T22:11:58.178Z,25.40
2023-01-11T22:14:24.646Z,19.10
2023-01-11T22:16:51.278Z,18.98
2023-01-11T22:19:17.839Z,18.60
2023-01-11T22:21:44.509Z,20.80
2023-01-11T22:24:11.576Z,13.93
2023-01-11T22:26:38.392Z,16.10
2023-01-11T22:29:06.918Z,21.00
2023-01-11T22:31:33.742Z,13.55
2023-01-11T22:34:00.456Z,18.75
2023-01-11T22:36:28.158Z,18.65
2023-01-11T22:38:56.819Z,22.48
2023-01-11T22:41:25.035Z,18.90
2023-01-11T22:43:51.925Z,14.63
2023-01-11T22:46:21.053Z,12.77
2023-01-11T22:48:47.919Z,16.30
2023-01-11T22:51:16.685Z,18.17
2023-01-11T22:53:45.002Z,14.73
2023-01-11T22:56:13.141Z,12.13
2023-01-11T22:58:39.741Z,18.08
2023-01-11T23:01:14.736Z,17.35
2023-01-11T23:03:41.880Z,13.60
2023-01-11T23:06:09.244Z,18.75
2023-01-11T23:08:40.062Z,16.63
2023-01-11T23:11:07.719Z,16.58
2023-01-11T23:13:34.225Z,21.05
2023-01-11T23:16:00.714Z,14.02
2023-01-11T23:18:27.119Z,14.10
2023-01-11T23:20:53.510Z,18.00
2023-01-11T23:23:20.015Z,16.23
2023-01-11T23:25:46.455Z,22.55
2023-01-11T23:28:12.874Z,14.38
2023-01-11T23:30:39.276Z,20.50
2023-01-11T23:33:05.861Z,17.15
2023-01-11T23:35:32.349Z,15.55
2023-01-11T23:37:58.826Z,13.30
2023-01-11T23:40:25.356Z,22.20
2023-01-11T23:42:51.844Z,21.35
2023-01-11T23:45:18.418Z,18.90
2023-01-11T23:47:44.790Z,18.08
2023-01-11T23:50:11.234Z,15.38
2023-01-11T23:52:37.561Z,13.88
2023-01-11T23:55:04.311Z,16.02
2023-01-11T23:57:30.884Z,19.50
2023-01-11T23:59:57.269Z,18.27
